PWSweather.com
Personal Weather Stations
Station Observations
KCAOCEAN4
Jeffries Ranch, Oceanside, CA 92057

Jeffries RanchOceanside, CA 92057

Lat: 33.2463208, Lon: -117.25335080000002

Elevation: 207

Station Type: Davis Vantage Vue

jeffriesranchweather.com

High Low Average
Temperature 66.9°F19.4°C 55.8°F13.2°C 60.3°F15.7°C
Dew Point 60.3°F15.7°C 54.9°F12.7°C 56.9°F13.8°C
Winds 6.0 mph 9.7 kmh Calm Calm 2.0 mph SSE3.2 kmh SSE
Wind Gusts 14.1 mph22.7 kmh -- 5.0 mph8.0 kmh
Humidity 97% 76% 89%
Pressure 30.10 in1019.3 mb 29.95 in1014.2 mb -
Precipitation 0.06 in1.5 mm - -
Hour Temp Dew Point Humidity Winds Wind Gusts Pressure Precip Precip Rate Daily Precip Total
12:05 AM 56.7°F13.7°C 55.8°F13.2°C 97% Calm Calm -- 29.98 in1015.2 mb 0.03 in0.8 mm 0.36 in9.1 mm 0.54 in13.7 mm
12:15 AM 56.7°F13.7°C 55.8°F13.2°C 97% Calm Calm -- 29.98 in1015.2 mb 0.03 in0.8 mm 0.00 in0.0 mm 0.55 in14.0 mm
12:25 AM 56.8°F13.8°C 55.9°F13.3°C 97% Calm Calm -- 29.98 in1015.2 mb 0.03 in0.8 mm 0.00 in0.0 mm 0.56 in14.2 mm
12:35 AM 56.8°F13.8°C 55.9°F13.3°C 97% Calm Calm 1.0 mph1.6 kmh 29.98 in1015.2 mb 0.04 in1.0 mm 0.06 in1.5 mm 0.58 in14.7 mm
12:45 AM 56.8°F13.8°C 55.9°F13.3°C 97% Calm Calm 2.0 mph3.2 kmh 29.97 in1014.9 mb 0.06 in1.5 mm 0.12 in3.0 mm 0.59 in15.0 mm
12:55 AM 56.7°F13.7°C 55.8°F13.2°C 97% 0.9 mph E1.4 kmh E 2.9 mph4.7 kmh 29.97 in1014.9 mb 0.07 in1.8 mm 0.06 in1.5 mm 0.60 in15.2 mm
01:05 AM 56.7°F13.7°C 55.8°F13.2°C 97% 0.9 mph ENE1.4 kmh ENE 2.9 mph4.7 kmh 29.97 in1014.9 mb 0.06 in1.5 mm 0.00 in0.0 mm 0.07 in1.8 mm
01:15 AM 56.7°F13.7°C 55.8°F13.2°C 97% 0.9 mph NE1.4 kmh NE 2.9 mph4.7 kmh 29.97 in1014.9 mb 0.05 in1.3 mm 0.00 in0.0 mm 0.07 in1.8 mm
01:25 AM 56.7°F13.7°C 55.8°F13.2°C 97% Calm Calm 0.9 mph1.4 kmh 29.98 in1015.2 mb 0.05 in1.3 mm 0.00 in0.0 mm 0.01 in0.3 mm
01:35 AM 56.7°F13.7°C 55.8°F13.2°C 97% Calm Calm 0.9 mph1.4 kmh 29.98 in1015.2 mb 0.04 in1.0 mm 0.00 in0.0 mm 0.02 in0.5 mm
01:46 AM 56.5°F13.6°C 55.6°F13.1°C 97% Calm Calm 2.0 mph3.2 kmh 29.98 in1015.2 mb 0.04 in1.0 mm 0.00 in0.0 mm 0.03 in0.8 mm
01:56 AM 56.5°F13.6°C 55.6°F13.1°C 97% 2.0 mph NE3.2 kmh NE 4.0 mph6.4 kmh 29.98 in1015.2 mb 0.04 in1.0 mm 0.00 in0.0 mm 0.04 in1.0 mm
02:06 AM 56.5°F13.6°C 55.6°F13.1°C 97% 0.9 mph E1.4 kmh E 2.9 mph4.7 kmh 29.98 in1015.2 mb 0.04 in1.0 mm 0.00 in0.0 mm 0.04 in1.0 mm
02:16 AM 56.5°F13.6°C 55.6°F13.1°C 97% 0.9 mph E1.4 kmh E 2.9 mph4.7 kmh 29.98 in1015.2 mb 0.04 in1.0 mm 0.00 in0.0 mm 0.04 in1.0 mm
02:26 AM 56.1°F13.4°C 55.2°F12.9°C 97% 0.9 mph ENE1.4 kmh ENE 2.0 mph3.2 kmh 29.97 in1014.9 mb 0.03 in0.8 mm 0.00 in0.0 mm 0.04 in1.0 mm
02:36 AM 56.3°F13.5°C 55.4°F13.0°C 97% Calm Calm 2.0 mph3.2 kmh 29.97 in1014.9 mb 0.02 in0.5 mm 0.00 in0.0 mm 0.04 in1.0 mm
02:46 AM 56.1°F13.4°C 55.2°F12.9°C 97% 0.9 mph NE1.4 kmh NE 2.9 mph4.7 kmh 29.97 in1014.9 mb 0.01 in0.3 mm 0.00 in0.0 mm 0.04 in1.0 mm
02:56 AM 56.1°F13.4°C 55.2°F12.9°C 97% 0.9 mph NE1.4 kmh NE 2.9 mph4.7 kmh 29.97 in1014.9 mb 0.00 in0.0 mm 0.00 in0.0 mm 0.04 in1.0 mm
03:06 AM 56.1°F13.4°C 55.2°F12.9°C 97% 2.0 mph ENE3.2 kmh ENE 4.0 mph6.4 kmh 29.96 in1014.6 mb 0.00 in0.0 mm 0.00 in0.0 mm 0.04 in1.0 mm
03:16 AM 55.9°F13.3°C 55.0°F12.8°C 97% 2.0 mph NE3.2 kmh NE 4.0 mph6.4 kmh 29.96 in1014.6 mb 0.00 in0.0 mm 0.00 in0.0 mm 0.04 in1.0 mm
03:26 AM 55.9°F13.3°C 55.0°F12.8°C 97% 0.9 mph E1.4 kmh E 4.0 mph6.4 kmh 29.96 in1014.6 mb 0.00 in0.0 mm 0.00 in0.0 mm 0.04 in1.0 mm
03:36 AM 55.9°F13.3°C 55.0°F12.8°C 97% 2.0 mph NE3.2 kmh NE 4.0 mph6.4 kmh 29.96 in1014.6 mb 0.00 in0.0 mm 0.00 in0.0 mm 0.04 in1.0 mm
03:46 AM 55.9°F13.3°C 55.0°F12.8°C 97% 2.0 mph NE3.2 kmh NE 4.0 mph6.4 kmh 29.96 in1014.6 mb 0.00 in0.0 mm 0.00 in0.0 mm 0.04 in1.0 mm
03:56 AM 55.9°F13.3°C 55.0°F12.8°C 97% 2.9 mph NE4.7 kmh NE 4.9 mph7.9 kmh 29.95 in1014.2 mb 0.00 in0.0 mm 0.00 in0.0 mm 0.04 in1.0 mm
04:06 AM 55.9°F13.3°C 55.0°F12.8°C 97% 2.0 mph ENE3.2 kmh ENE 5.0 mph8.0 kmh 29.96 in1014.6 mb 0.00 in0.0 mm 0.00 in0.0 mm 0.04 in1.0 mm
04:16 AM 55.9°F13.3°C 55.0°F12.8°C 97% 2.0 mph NE3.2 kmh NE 4.9 mph7.9 kmh 29.95 in1014.2 mb 0.00 in0.0 mm 0.00 in0.0 mm 0.04 in1.0 mm
04:26 AM 55.9°F13.3°C 55.0°F12.8°C 97% 0.9 mph ENE1.4 kmh ENE 4.0 mph6.4 kmh 29.96 in1014.6 mb 0.00 in0.0 mm 0.00 in0.0 mm 0.04 in1.0 mm
04:36 AM 55.8°F13.2°C 54.9°F12.7°C 97% 2.9 mph NE4.7 kmh NE 5.0 mph8.0 kmh 29.96 in1014.6 mb 0.00 in0.0 mm 0.00 in0.0 mm 0.04 in1.0 mm
04:46 AM 55.9°F13.3°C 55.0°F12.8°C 97% 0.9 mph N1.4 kmh N 2.9 mph4.7 kmh 29.96 in1014.6 mb 0.00 in0.0 mm 0.00 in0.0 mm 0.04 in1.0 mm
04:56 AM 55.9°F13.3°C 55.0°F12.8°C 97% Calm Calm 0.9 mph1.4 kmh 29.96 in1014.6 mb 0.00 in0.0 mm 0.00 in0.0 mm 0.04 in1.0 mm
05:06 AM 55.9°F13.3°C 55.0°F12.8°C 97% 0.9 mph NE1.4 kmh NE 2.0 mph3.2 kmh 29.96 in1014.6 mb 0.00 in0.0 mm 0.00 in0.0 mm 0.04 in1.0 mm
05:16 AM 55.9°F13.3°C 55.0°F12.8°C 97% 0.9 mph NE1.4 kmh NE 3.0 mph4.8 kmh 29.96 in1014.6 mb 0.00 in0.0 mm 0.00 in0.0 mm 0.04 in1.0 mm
05:26 AM 55.9°F13.3°C 55.0°F12.8°C 97% 2.0 mph ENE3.2 kmh ENE 2.9 mph4.7 kmh 29.96 in1014.6 mb 0.00 in0.0 mm 0.00 in0.0 mm 0.04 in1.0 mm
05:36 AM 55.9°F13.3°C 55.0°F12.8°C 97% 2.0 mph NE3.2 kmh NE 5.0 mph8.0 kmh 29.97 in1014.9 mb 0.00 in0.0 mm 0.00 in0.0 mm 0.04 in1.0 mm
05:46 AM 55.9°F13.3°C 55.0°F12.8°C 97% 2.9 mph NE4.7 kmh NE 6.0 mph9.7 kmh 29.97 in1014.9 mb 0.00 in0.0 mm 0.00 in0.0 mm 0.04 in1.0 mm
05:56 AM 55.9°F13.3°C 55.0°F12.8°C 97% 2.9 mph NE4.7 kmh NE 4.9 mph7.9 kmh 29.97 in1014.9 mb 0.00 in0.0 mm 0.00 in0.0 mm 0.04 in1.0 mm
06:06 AM 55.9°F13.3°C 55.0°F12.8°C 97% 2.9 mph NE4.7 kmh NE 4.9 mph7.9 kmh 29.97 in1014.9 mb 0.01 in0.3 mm 0.01 in0.3 mm 0.05 in1.3 mm
06:16 AM 55.9°F13.3°C 55.0°F12.8°C 97% 2.9 mph NE4.7 kmh NE 4.9 mph7.9 kmh 29.97 in1014.9 mb 0.01 in0.3 mm 0.00 in0.0 mm 0.05 in1.3 mm
06:26 AM 55.9°F13.3°C 55.0°F12.8°C 97% 2.0 mph NE3.2 kmh NE 4.9 mph7.9 kmh 29.98 in1015.2 mb 0.01 in0.3 mm 0.00 in0.0 mm 0.05 in1.3 mm
06:36 AM 55.8°F13.2°C 54.9°F12.7°C 97% 2.0 mph NE3.2 kmh NE 4.0 mph6.4 kmh 29.98 in1015.2 mb 0.01 in0.3 mm 0.00 in0.0 mm 0.05 in1.3 mm
06:46 AM 55.8°F13.2°C 54.9°F12.7°C 97% 2.0 mph NE3.2 kmh NE 2.9 mph4.7 kmh 29.98 in1015.2 mb 0.01 in0.3 mm 0.00 in0.0 mm 0.05 in1.3 mm
06:56 AM 55.8°F13.2°C 54.9°F12.7°C 97% 0.9 mph NNE1.4 kmh NNE 2.0 mph3.2 kmh 29.98 in1015.2 mb 0.01 in0.3 mm 0.00 in0.0 mm 0.05 in1.3 mm
07:06 AM 55.8°F13.2°C 54.9°F12.7°C 97% Calm Calm 2.0 mph3.2 kmh 29.99 in1015.6 mb 0.00 in0.0 mm 0.00 in0.0 mm 0.05 in1.3 mm
07:16 AM 55.8°F13.2°C 54.9°F12.7°C 97% 0.9 mph ENE1.4 kmh ENE 2.0 mph3.2 kmh 29.99 in1015.6 mb 0.00 in0.0 mm 0.00 in0.0 mm 0.05 in1.3 mm
07:26 AM 55.8°F13.2°C 54.9°F12.7°C 97% 0.9 mph NE1.4 kmh NE 2.0 mph3.2 kmh 30.00 in1015.9 mb 0.00 in0.0 mm 0.00 in0.0 mm 0.05 in1.3 mm
07:36 AM 55.8°F13.2°C 54.9°F12.7°C 97% 0.9 mph NE1.4 kmh NE 4.0 mph6.4 kmh 30.00 in1015.9 mb 0.00 in0.0 mm 0.00 in0.0 mm 0.05 in1.3 mm
07:46 AM 55.8°F13.2°C 54.9°F12.7°C 97% 0.9 mph NE1.4 kmh NE 4.0 mph6.4 kmh 30.00 in1015.9 mb 0.00 in0.0 mm 0.00 in0.0 mm 0.05 in1.3 mm
07:56 AM 55.8°F13.2°C 54.9°F12.7°C 97% 2.9 mph NE4.7 kmh NE 6.0 mph9.7 kmh 30.01 in1016.3 mb 0.00 in0.0 mm 0.00 in0.0 mm 0.05 in1.3 mm
08:06 AM 55.9°F13.3°C 55.0°F12.8°C 97% 2.0 mph NE3.2 kmh NE 4.9 mph7.9 kmh 30.01 in1016.3 mb 0.00 in0.0 mm 0.00 in0.0 mm 0.05 in1.3 mm
08:16 AM 55.9°F13.3°C 55.0°F12.8°C 97% 2.9 mph ENE4.7 kmh ENE 6.9 mph11.1 kmh 30.01 in1016.3 mb 0.00 in0.0 mm 0.00 in0.0 mm 0.05 in1.3 mm
08:26 AM 55.9°F13.3°C 55.0°F12.8°C 97% 2.9 mph NE4.7 kmh NE 6.0 mph9.7 kmh 30.01 in1016.3 mb 0.01 in0.3 mm 0.06 in1.5 mm 0.06 in1.5 mm
08:36 AM 56.1°F13.4°C 55.2°F12.9°C 97% 2.9 mph NE4.7 kmh NE 4.9 mph7.9 kmh 30.02 in1016.6 mb 0.01 in0.3 mm 0.00 in0.0 mm 0.06 in1.5 mm
08:46 AM 56.5°F13.6°C 55.6°F13.1°C 97% 2.0 mph NE3.2 kmh NE 4.9 mph7.9 kmh 30.03 in1016.9 mb 0.01 in0.3 mm 0.00 in0.0 mm 0.06 in1.5 mm
08:56 AM 56.5°F13.6°C 55.6°F13.1°C 97% 2.0 mph E3.2 kmh E 4.0 mph6.4 kmh 30.03 in1016.9 mb 0.01 in0.3 mm 0.00 in0.0 mm 0.06 in1.5 mm
09:06 AM 56.8°F13.8°C 55.9°F13.3°C 97% 2.9 mph ENE4.7 kmh ENE 4.9 mph7.9 kmh 30.03 in1016.9 mb 0.01 in0.3 mm 0.00 in0.0 mm 0.06 in1.5 mm
09:16 AM 57.0°F13.9°C 55.9°F13.3°C 96% 2.9 mph NE4.7 kmh NE 7.0 mph11.3 kmh 30.03 in1016.9 mb 0.01 in0.3 mm 0.00 in0.0 mm 0.06 in1.5 mm
09:26 AM 57.6°F14.2°C 56.5°F13.6°C 96% 2.0 mph NE3.2 kmh NE 4.9 mph7.9 kmh 30.04 in1017.3 mb 0.00 in0.0 mm 0.00 in0.0 mm 0.06 in1.5 mm
09:36 AM 58.1°F14.5°C 57.0°F13.9°C 96% 2.9 mph NE4.7 kmh NE 6.0 mph9.7 kmh 30.04 in1017.3 mb 0.00 in0.0 mm 0.00 in0.0 mm 0.06 in1.5 mm
09:46 AM 58.8°F14.9°C 57.7°F14.3°C 96% 2.9 mph NNE4.7 kmh NNE 4.9 mph7.9 kmh 30.04 in1017.3 mb 0.00 in0.0 mm 0.00 in0.0 mm 0.06 in1.5 mm
09:56 AM 59.4°F15.2°C 57.9°F14.4°C 95% 2.9 mph NE4.7 kmh NE 6.0 mph9.7 kmh 30.04 in1017.3 mb 0.00 in0.0 mm 0.00 in0.0 mm 0.06 in1.5 mm
10:06 AM 59.7°F15.4°C 57.9°F14.4°C 94% 2.9 mph NNW4.7 kmh NNW 6.0 mph9.7 kmh 30.04 in1017.3 mb 0.00 in0.0 mm 0.00 in0.0 mm 0.06 in1.5 mm
10:16 AM 60.3°F15.7°C 58.5°F14.7°C 94% 2.0 mph NE3.2 kmh NE 4.0 mph6.4 kmh 30.05 in1017.6 mb 0.00 in0.0 mm 0.00 in0.0 mm 0.06 in1.5 mm
10:26 AM 60.4°F15.8°C 58.5°F14.7°C 93% 2.9 mph NE4.7 kmh NE 4.9 mph7.9 kmh 30.05 in1017.6 mb 0.00 in0.0 mm 0.00 in0.0 mm 0.06 in1.5 mm
10:36 AM 61.0°F16.1°C 58.6°F14.8°C 92% 2.0 mph ENE3.2 kmh ENE 4.9 mph7.9 kmh 30.05 in1017.6 mb 0.00 in0.0 mm 0.00 in0.0 mm 0.06 in1.5 mm
10:46 AM 61.2°F16.2°C 58.8°F14.9°C 92% 2.0 mph NE3.2 kmh NE 4.0 mph6.4 kmh 30.05 in1017.6 mb 0.00 in0.0 mm 0.00 in0.0 mm 0.06 in1.5 mm
10:56 AM 61.5°F16.4°C 58.8°F14.9°C 91% 2.0 mph NE3.2 kmh NE 4.0 mph6.4 kmh 30.05 in1017.6 mb 0.00 in0.0 mm 0.00 in0.0 mm 0.06 in1.5 mm
11:06 AM 62.2°F16.8°C 58.6°F14.8°C 88% 2.0 mph NNW3.2 kmh NNW 4.0 mph6.4 kmh 30.05 in1017.6 mb 0.00 in0.0 mm 0.00 in0.0 mm 0.06 in1.5 mm
11:16 AM 63.3°F17.4°C 59.4°F15.2°C 87% 0.9 mph NW1.4 kmh NW 4.0 mph6.4 kmh 30.05 in1017.6 mb 0.00 in0.0 mm 0.00 in0.0 mm 0.06 in1.5 mm
11:26 AM 63.7°F17.6°C 58.8°F14.9°C 84% 2.0 mph N3.2 kmh N 6.0 mph9.7 kmh 30.04 in1017.3 mb 0.00 in0.0 mm 0.00 in0.0 mm 0.06 in1.5 mm
11:36 AM 64.2°F17.9°C 59.4°F15.2°C 84% 2.0 mph NE3.2 kmh NE 4.0 mph6.4 kmh 30.04 in1017.3 mb 0.00 in0.0 mm 0.00 in0.0 mm 0.06 in1.5 mm
11:46 AM 64.6°F18.1°C 59.4°F15.2°C 83% 0.9 mph WNW1.4 kmh WNW 2.9 mph4.7 kmh 30.05 in1017.6 mb 0.00 in0.0 mm 0.00 in0.0 mm 0.06 in1.5 mm
11:56 AM 64.6°F18.1°C 59.0°F15.0°C 82% 0.9 mph NE1.4 kmh NE 4.0 mph6.4 kmh 30.05 in1017.6 mb 0.00 in0.0 mm 0.00 in0.0 mm 0.06 in1.5 mm
12:06 PM 65.1°F18.4°C 58.5°F14.7°C 79% 2.0 mph NNW3.2 kmh NNW 5.0 mph8.0 kmh 30.04 in1017.3 mb 0.00 in0.0 mm 0.00 in0.0 mm 0.06 in1.5 mm
12:16 PM 65.5°F18.6°C 58.8°F14.9°C 79% 2.0 mph W3.2 kmh W 4.9 mph7.9 kmh 30.04 in1017.3 mb 0.00 in0.0 mm 0.00 in0.0 mm 0.06 in1.5 mm
12:26 PM 65.5°F18.6°C 58.8°F14.9°C 79% 2.9 mph NW4.7 kmh NW 6.0 mph9.7 kmh 30.03 in1016.9 mb 0.00 in0.0 mm 0.00 in0.0 mm 0.06 in1.5 mm
12:36 PM 65.7°F18.7°C 59.0°F15.0°C 79% 2.9 mph WNW4.7 kmh WNW 5.0 mph8.0 kmh 30.03 in1016.9 mb 0.00 in0.0 mm 0.00 in0.0 mm 0.06 in1.5 mm
12:46 PM 66.0°F18.9°C 59.0°F15.0°C 78% 2.9 mph WNW4.7 kmh WNW 6.0 mph9.7 kmh 30.03 in1016.9 mb 0.00 in0.0 mm 0.00 in0.0 mm 0.06 in1.5 mm
12:56 PM 66.4°F19.1°C 59.4°F15.2°C 78% 4.0 mph WNW6.4 kmh WNW 8.1 mph13.0 kmh 30.03 in1016.9 mb 0.00 in0.0 mm 0.00 in0.0 mm 0.06 in1.5 mm
01:06 PM 66.2°F19.0°C 58.5°F14.7°C 76% 4.9 mph WNW7.9 kmh WNW 10.1 mph16.3 kmh 30.03 in1016.9 mb 0.00 in0.0 mm 0.00 in0.0 mm 0.06 in1.5 mm
01:16 PM 66.7°F19.3°C 59.0°F15.0°C 76% 4.0 mph W6.4 kmh W 6.9 mph11.1 kmh 30.03 in1016.9 mb 0.00 in0.0 mm 0.00 in0.0 mm 0.06 in1.5 mm
01:26 PM 66.6°F19.2°C 58.8°F14.9°C 76% 2.9 mph W4.7 kmh W 6.0 mph9.7 kmh 30.03 in1016.9 mb 0.00 in0.0 mm 0.00 in0.0 mm 0.06 in1.5 mm
01:36 PM 66.4°F19.1°C 58.6°F14.8°C 76% 6.0 mph NW9.7 kmh NW 14.1 mph22.7 kmh 30.02 in1016.6 mb 0.00 in0.0 mm 0.00 in0.0 mm 0.06 in1.5 mm
01:46 PM 66.0°F18.9°C 58.6°F14.8°C 77% 4.0 mph WSW6.4 kmh WSW 8.9 mph14.3 kmh 30.02 in1016.6 mb 0.00 in0.0 mm 0.00 in0.0 mm 0.06 in1.5 mm
01:56 PM 66.6°F19.2°C 59.2°F15.1°C 77% 2.9 mph NW4.7 kmh NW 8.1 mph13.0 kmh 30.02 in1016.6 mb 0.00 in0.0 mm 0.00 in0.0 mm 0.06 in1.5 mm
02:06 PM 66.4°F19.1°C 59.7°F15.4°C 79% 4.0 mph WSW6.4 kmh WSW 8.9 mph14.3 kmh 30.02 in1016.6 mb 0.00 in0.0 mm 0.00 in0.0 mm 0.06 in1.5 mm
02:16 PM 66.2°F19.0°C 59.9°F15.5°C 80% 4.9 mph W7.9 kmh W 12.1 mph19.5 kmh 30.01 in1016.3 mb 0.00 in0.0 mm 0.00 in0.0 mm 0.06 in1.5 mm
02:26 PM 66.2°F19.0°C 59.9°F15.5°C 80% 4.9 mph SW7.9 kmh SW 11.0 mph17.7 kmh 30.01 in1016.3 mb 0.00 in0.0 mm 0.00 in0.0 mm 0.06 in1.5 mm
02:36 PM 66.2°F19.0°C 59.9°F15.5°C 80% 4.9 mph W7.9 kmh W 11.0 mph17.7 kmh 30.01 in1016.3 mb 0.00 in0.0 mm 0.00 in0.0 mm 0.06 in1.5 mm
02:46 PM 66.9°F19.4°C 60.3°F15.7°C 79% 4.0 mph WSW6.4 kmh WSW 10.1 mph16.3 kmh 30.01 in1016.3 mb 0.00 in0.0 mm 0.00 in0.0 mm 0.06 in1.5 mm
02:56 PM 66.9°F19.4°C 60.3°F15.7°C 79% 4.9 mph WSW7.9 kmh WSW 12.1 mph19.5 kmh 30.01 in1016.3 mb 0.00 in0.0 mm 0.00 in0.0 mm 0.06 in1.5 mm
03:06 PM 66.2°F19.0°C 59.5°F15.3°C 79% 4.9 mph W7.9 kmh W 10.1 mph16.3 kmh 30.01 in1016.3 mb 0.00 in0.0 mm 0.00 in0.0 mm 0.06 in1.5 mm
03:16 PM 66.2°F19.0°C 59.2°F15.1°C 78% 6.0 mph WSW9.7 kmh WSW 12.1 mph19.5 kmh 30.01 in1016.3 mb 0.00 in0.0 mm 0.00 in0.0 mm 0.06 in1.5 mm
03:26 PM 66.7°F19.3°C 60.1°F15.6°C 79% 4.9 mph WSW7.9 kmh WSW 11.0 mph17.7 kmh 30.01 in1016.3 mb 0.00 in0.0 mm 0.00 in0.0 mm 0.06 in1.5 mm
03:36 PM 66.6°F19.2°C 59.5°F15.3°C 78% 6.0 mph WSW9.7 kmh WSW 12.1 mph19.5 kmh 30.01 in1016.3 mb 0.00 in0.0 mm 0.00 in0.0 mm 0.06 in1.5 mm
03:46 PM 66.6°F19.2°C 59.5°F15.3°C 78% 4.9 mph WSW7.9 kmh WSW 11.0 mph17.7 kmh 30.01 in1016.3 mb 0.00 in0.0 mm 0.00 in0.0 mm 0.06 in1.5 mm
03:56 PM 66.9°F19.4°C 59.5°F15.3°C 77% 4.0 mph SW6.4 kmh SW 8.9 mph14.3 kmh 30.01 in1016.3 mb 0.00 in0.0 mm 0.00 in0.0 mm 0.06 in1.5 mm
04:06 PM 66.7°F19.3°C 59.7°F15.4°C 78% 4.0 mph SSW6.4 kmh SSW 10.1 mph16.3 kmh 30.01 in1016.3 mb 0.00 in0.0 mm 0.00 in0.0 mm 0.06 in1.5 mm
04:16 PM 66.4°F19.1°C 59.0°F15.0°C 77% 4.0 mph W6.4 kmh W 8.9 mph14.3 kmh 30.01 in1016.3 mb 0.00 in0.0 mm 0.00 in0.0 mm 0.06 in1.5 mm
04:26 PM 66.0°F18.9°C 59.4°F15.2°C 79% 4.0 mph SSW6.4 kmh SSW 9.0 mph14.5 kmh 30.00 in1015.9 mb 0.00 in0.0 mm 0.00 in0.0 mm 0.06 in1.5 mm
04:36 PM 65.8°F18.8°C 59.2°F15.1°C 79% 4.0 mph SW6.4 kmh SW 8.9 mph14.3 kmh 30.01 in1016.3 mb 0.00 in0.0 mm 0.00 in0.0 mm 0.06 in1.5 mm
04:46 PM 66.0°F18.9°C 59.4°F15.2°C 79% 4.0 mph WNW6.4 kmh WNW 6.9 mph11.1 kmh 30.00 in1015.9 mb 0.00 in0.0 mm 0.00 in0.0 mm 0.06 in1.5 mm
04:56 PM 66.6°F19.2°C 59.2°F15.1°C 77% 4.0 mph SW6.4 kmh SW 8.1 mph13.0 kmh 30.01 in1016.3 mb 0.00 in0.0 mm 0.00 in0.0 mm 0.06 in1.5 mm
05:06 PM 66.7°F19.3°C 59.0°F15.0°C 76% 2.9 mph WSW4.7 kmh WSW 6.9 mph11.1 kmh 30.01 in1016.3 mb 0.00 in0.0 mm 0.00 in0.0 mm 0.06 in1.5 mm
05:16 PM 66.4°F19.1°C 58.6°F14.8°C 76% 4.0 mph WNW6.4 kmh WNW 6.0 mph9.7 kmh 30.01 in1016.3 mb 0.00 in0.0 mm 0.00 in0.0 mm 0.06 in1.5 mm
05:26 PM 66.4°F19.1°C 58.6°F14.8°C 76% 4.0 mph SW6.4 kmh SW 7.0 mph11.3 kmh 30.01 in1016.3 mb 0.00 in0.0 mm 0.00 in0.0 mm 0.06 in1.5 mm
05:36 PM 66.0°F18.9°C 58.3°F14.6°C 76% 4.0 mph W6.4 kmh W 9.0 mph14.5 kmh 30.01 in1016.3 mb 0.00 in0.0 mm 0.00 in0.0 mm 0.06 in1.5 mm
05:46 PM 66.4°F19.1°C 58.6°F14.8°C 76% 2.9 mph WNW4.7 kmh WNW 6.0 mph9.7 kmh 30.01 in1016.3 mb 0.00 in0.0 mm 0.00 in0.0 mm 0.06 in1.5 mm
05:56 PM 66.4°F19.1°C 58.6°F14.8°C 76% 2.9 mph WSW4.7 kmh WSW 6.0 mph9.7 kmh 30.00 in1015.9 mb 0.00 in0.0 mm 0.00 in0.0 mm 0.06 in1.5 mm
06:06 PM 65.8°F18.8°C 58.5°F14.7°C 77% 2.9 mph WNW4.7 kmh WNW 7.0 mph11.3 kmh 30.01 in1016.3 mb 0.00 in0.0 mm 0.00 in0.0 mm 0.06 in1.5 mm
06:16 PM 65.1°F18.4°C 58.1°F14.5°C 78% 2.9 mph WNW4.7 kmh WNW 6.0 mph9.7 kmh 30.01 in1016.3 mb 0.00 in0.0 mm 0.00 in0.0 mm 0.06 in1.5 mm
06:26 PM 64.9°F18.3°C 57.9°F14.4°C 78% 2.9 mph WSW4.7 kmh WSW 6.0 mph9.7 kmh 30.01 in1016.3 mb 0.00 in0.0 mm 0.00 in0.0 mm 0.06 in1.5 mm
06:36 PM 64.2°F17.9°C 57.6°F14.2°C 79% 2.9 mph WSW4.7 kmh WSW 4.9 mph7.9 kmh 30.02 in1016.6 mb 0.00 in0.0 mm 0.00 in0.0 mm 0.06 in1.5 mm
06:46 PM 63.5°F17.5°C 57.6°F14.2°C 81% 2.0 mph W3.2 kmh W 4.9 mph7.9 kmh 30.02 in1016.6 mb 0.00 in0.0 mm 0.00 in0.0 mm 0.06 in1.5 mm
06:56 PM 63.1°F17.3°C 57.6°F14.2°C 82% 2.0 mph WSW3.2 kmh WSW 4.0 mph6.4 kmh 30.02 in1016.6 mb 0.00 in0.0 mm 0.00 in0.0 mm 0.06 in1.5 mm
07:06 PM 62.6°F17.0°C 57.0°F13.9°C 82% 0.9 mph WSW1.4 kmh WSW 4.0 mph6.4 kmh 30.03 in1016.9 mb 0.00 in0.0 mm 0.00 in0.0 mm 0.06 in1.5 mm
07:16 PM 62.1°F16.7°C 56.8°F13.8°C 83% 0.9 mph SSE1.4 kmh SSE 4.0 mph6.4 kmh 30.03 in1016.9 mb 0.00 in0.0 mm 0.00 in0.0 mm 0.06 in1.5 mm
07:26 PM 61.5°F16.4°C 56.3°F13.5°C 83% Calm Calm 2.0 mph3.2 kmh 30.03 in1016.9 mb 0.00 in0.0 mm 0.00 in0.0 mm 0.06 in1.5 mm
07:36 PM 61.3°F16.3°C 56.5°F13.6°C 84% Calm Calm 0.9 mph1.4 kmh 30.03 in1016.9 mb 0.00 in0.0 mm 0.00 in0.0 mm 0.06 in1.5 mm
07:46 PM 61.0°F16.1°C 56.1°F13.4°C 84% Calm Calm -- 30.03 in1016.9 mb 0.00 in0.0 mm 0.00 in0.0 mm 0.06 in1.5 mm
07:56 PM 60.6°F15.9°C 56.1°F13.4°C 85% Calm Calm -- 30.03 in1016.9 mb 0.00 in0.0 mm 0.00 in0.0 mm 0.06 in1.5 mm
08:06 PM 60.3°F15.7°C 56.1°F13.4°C 86% Calm Calm 1.0 mph1.6 kmh 30.03 in1016.9 mb 0.00 in0.0 mm 0.00 in0.0 mm 0.06 in1.5 mm
08:16 PM 59.7°F15.4°C 55.8°F13.2°C 87% Calm Calm -- 30.04 in1017.3 mb 0.00 in0.0 mm 0.00 in0.0 mm 0.06 in1.5 mm
08:26 PM 59.4°F15.2°C 55.4°F13.0°C 87% Calm Calm -- 30.04 in1017.3 mb 0.00 in0.0 mm 0.00 in0.0 mm 0.06 in1.5 mm
08:36 PM 58.6°F14.8°C 55.0°F12.8°C 88% Calm Calm -- 30.04 in1017.3 mb 0.00 in0.0 mm 0.00 in0.0 mm 0.06 in1.5 mm
08:46 PM 58.1°F14.5°C 55.2°F12.9°C 90% Calm Calm 0.9 mph1.4 kmh 30.05 in1017.6 mb 0.00 in0.0 mm 0.00 in0.0 mm 0.06 in1.5 mm
08:56 PM 58.1°F14.5°C 55.2°F12.9°C 90% Calm Calm -- 30.06 in1017.9 mb 0.00 in0.0 mm 0.00 in0.0 mm 0.06 in1.5 mm
09:06 PM 58.1°F14.5°C 55.4°F13.0°C 91% 0.9 mph S1.4 kmh S 3.0 mph4.8 kmh 30.07 in1018.3 mb 0.00 in0.0 mm 0.00 in0.0 mm 0.06 in1.5 mm
09:16 PM 58.3°F14.6°C 55.6°F13.1°C 91% Calm Calm 2.0 mph3.2 kmh 30.07 in1018.3 mb 0.00 in0.0 mm 0.00 in0.0 mm 0.06 in1.5 mm
09:26 PM 58.1°F14.5°C 55.4°F13.0°C 91% Calm Calm 0.9 mph1.4 kmh 30.08 in1018.6 mb 0.00 in0.0 mm 0.00 in0.0 mm 0.06 in1.5 mm
09:36 PM 57.7°F14.3°C 55.2°F12.9°C 91% Calm Calm -- 30.08 in1018.6 mb 0.00 in0.0 mm 0.00 in0.0 mm 0.06 in1.5 mm
09:46 PM 57.7°F14.3°C 55.2°F12.9°C 91% Calm Calm -- 30.09 in1019.0 mb 0.00 in0.0 mm 0.00 in0.0 mm 0.06 in1.5 mm
09:56 PM 58.3°F14.6°C 55.9°F13.3°C 92% Calm Calm -- 30.09 in1019.0 mb 0.00 in0.0 mm 0.00 in0.0 mm 0.06 in1.5 mm
10:06 PM 58.5°F14.7°C 56.1°F13.4°C 92% Calm Calm -- 30.09 in1019.0 mb 0.00 in0.0 mm 0.00 in0.0 mm 0.06 in1.5 mm
10:16 PM 58.6°F14.8°C 55.9°F13.3°C 91% Calm Calm 2.0 mph3.2 kmh 30.10 in1019.3 mb 0.00 in0.0 mm 0.00 in0.0 mm 0.06 in1.5 mm
10:26 PM 58.8°F14.9°C 56.1°F13.4°C 91% Calm Calm 2.0 mph3.2 kmh 30.09 in1019.0 mb 0.00 in0.0 mm 0.00 in0.0 mm 0.06 in1.5 mm
10:36 PM 58.8°F14.9°C 56.1°F13.4°C 91% 0.9 mph WNW1.4 kmh WNW 2.0 mph3.2 kmh 30.10 in1019.3 mb 0.00 in0.0 mm 0.00 in0.0 mm 0.06 in1.5 mm
10:46 PM 59.0°F15.0°C 56.3°F13.5°C 91% Calm Calm 0.9 mph1.4 kmh 30.10 in1019.3 mb 0.00 in0.0 mm 0.00 in0.0 mm 0.06 in1.5 mm
10:56 PM 59.0°F15.0°C 56.3°F13.5°C 91% Calm Calm 0.9 mph1.4 kmh 30.10 in1019.3 mb 0.00 in0.0 mm 0.00 in0.0 mm 0.06 in1.5 mm
11:06 PM 59.2°F15.1°C 56.5°F13.6°C 91% Calm Calm -- 30.10 in1019.3 mb 0.00 in0.0 mm 0.00 in0.0 mm 0.06 in1.5 mm
11:16 PM 59.2°F15.1°C 56.5°F13.6°C 91% Calm Calm -- 30.09 in1019.0 mb 0.00 in0.0 mm 0.00 in0.0 mm 0.06 in1.5 mm
11:26 PM 59.2°F15.1°C 56.5°F13.6°C 91% Calm Calm -- 30.09 in1019.0 mb 0.00 in0.0 mm 0.00 in0.0 mm 0.06 in1.5 mm
11:36 PM 59.2°F15.1°C 56.5°F13.6°C 91% Calm Calm 2.0 mph3.2 kmh 30.09 in1019.0 mb 0.00 in0.0 mm 0.00 in0.0 mm 0.06 in1.5 mm
11:46 PM 59.2°F15.1°C 56.5°F13.6°C 91% 0.9 mph NE1.4 kmh NE 2.9 mph4.7 kmh 30.09 in1019.0 mb 0.00 in0.0 mm 0.00 in0.0 mm 0.06 in1.5 mm
11:56 PM 59.2°F15.1°C 56.8°F13.8°C 92% 2.0 mph ENE3.2 kmh ENE 3.0 mph4.8 kmh 30.08 in1018.6 mb 0.00 in0.0 mm 0.00 in0.0 mm 0.06 in1.5 mm